createdAt,value
2022-08-04T00:00:12.452Z,66.40
2022-08-04T00:02:57.767Z,67.20
2022-08-04T00:05:24.585Z,67.60
2022-08-04T00:08:21.739Z,68.10
2022-08-04T00:10:55.423Z,68.50
2022-08-04T00:13:24.366Z,68.80
2022-08-04T00:15:57.951Z,68.90
2022-08-04T00:18:30.213Z,69.00
2022-08-04T00:21:03.462Z,69.20
2022-08-04T00:24:10.447Z,68.90
2022-08-04T00:26:23.572Z,68.60
2022-08-04T00:28:53.372Z,68.40
2022-08-04T00:31:33.184Z,68.40
2022-08-04T00:34:14.041Z,68.90
2022-08-04T00:36:43.588Z,69.40
2022-08-04T00:39:13.379Z,69.80
2022-08-04T00:42:13.933Z,69.80
2022-08-04T00:45:00.091Z,69.60
2022-08-04T00:47:47.138Z,69.20
2022-08-04T00:50:39.885Z,68.90
2022-08-04T00:53:08.083Z,68.60
2022-08-04T00:55:52.784Z,67.60
2022-08-04T00:58:48.560Z,65.60
2022-08-04T01:01:40.983Z,64.10
2022-08-04T01:04:26.208Z,62.00
2022-08-04T01:07:27.830Z,60.40
2022-08-04T01:10:22.821Z,59.10
2022-08-04T01:13:08.307Z,58.80
2022-08-04T01:16:05.409Z,57.80
2022-08-04T01:18:50.810Z,57.20
2022-08-04T01:21:44.639Z,56.70
2022-08-04T01:24:39.385Z,56.30
2022-08-04T01:27:24.205Z,56.00
2022-08-04T01:29:59.159Z,55.80
2022-08-04T01:32:40.874Z,55.50
2022-08-04T01:35:21.577Z,55.40
2022-08-04T01:38:18.149Z,55.20
2022-08-04T01:40:50.628Z,55.10
2022-08-04T01:43:18.111Z,55.10
2022-08-04T01:45:49.746Z,55.30
2022-08-04T01:48:23.108Z,55.20
2022-08-04T01:50:53.663Z,56.00
2022-08-04T01:53:21.385Z,54.80
2022-08-04T01:55:55.783Z,54.80
2022-08-04T01:58:24.710Z,54.80
2022-08-04T02:01:08.543Z,54.80
2022-08-04T02:04:19.593Z,54.80
2022-08-04T02:06:49.757Z,54.80
2022-08-04T02:09:28.801Z,56.50
2022-08-04T02:12:16.477Z,58.20
2022-08-04T02:14:56.692Z,59.60
2022-08-04T02:17:31.956Z,60.60
2022-08-04T02:20:06.283Z,61.00
2022-08-04T02:22:43.586Z,61.70
2022-08-04T02:25:12.245Z,62.10
2022-08-04T02:28:13.225Z,62.60
2022-08-04T02:30:53.526Z,62.50
2022-08-04T02:33:26.874Z,62.50
2022-08-04T02:36:02.394Z,62.40
2022-08-04T02:39:03.380Z,61.10
2022-08-04T02:41:31.687Z,59.20
2022-08-04T02:44:04.053Z,58.70
2022-08-04T02:46:33.587Z,59.80
2022-08-04T02:49:04.241Z,60.60
2022-08-04T02:51:35.478Z,61.30
2022-08-04T02:54:05.189Z,61.80
2022-08-04T02:56:34.265Z,62.20
2022-08-04T02:59:11.231Z,62.60
2022-08-04T03:01:56.936Z,62.80
2022-08-04T03:04:36.855Z,63.40
2022-08-04T03:07:25.480Z,64.90
2022-08-04T03:10:22.945Z,64.90
2022-08-04T03:13:02.633Z,65.60
2022-08-04T03:16:09.021Z,66.30
2022-08-04T03:18:54.651Z,66.80
2022-08-04T03:21:33.595Z,67.40
2022-08-04T03:24:20.190Z,67.80
2022-08-04T03:27:08.431Z,68.00
2022-08-04T03:30:05.420Z,68.30
2022-08-04T03:33:14.647Z,68.60
2022-08-04T03:36:00.237Z,69.00
2022-08-04T03:39:11.156Z,68.90
2022-08-04T03:42:11.166Z,68.10
2022-08-04T03:44:44.084Z,66.70
2022-08-04T03:47:21.209Z,63.70
2022-08-04T03:50:06.381Z,62.60
2022-08-04T03:52:54.939Z,61.00
2022-08-04T03:55:56.085Z,60.20
2022-08-04T03:58:36.586Z,60.50
2022-08-04T04:01:41.616Z,59.00
2022-08-04T04:04:51.688Z,58.70
2022-08-04T04:07:44.975Z,58.40
2022-08-04T04:10:47.956Z,59.20
2022-08-04T04:13:29.579Z,58.30
2022-08-04T04:16:14.717Z,58.10
2022-08-04T04:19:02.767Z,57.90
2022-08-04T04:21:47.231Z,57.80
2022-08-04T04:24:46.017Z,58.00
2022-08-04T04:28:43.472Z,58.10
2022-08-04T04:31:08.194Z,58.20
2022-08-04T04:33:58.836Z,58.50
2022-08-04T04:37:19.807Z,58.70
2022-08-04T04:39:56.771Z,59.00
2022-08-04T04:42:38.359Z,59.00
2022-08-04T04:45:38.427Z,58.90
2022-08-04T04:48:47.386Z,58.70
2022-08-04T04:52:00.246Z,58.50
2022-08-04T04:54:49.855Z,58.20
2022-08-04T04:57:20.261Z,58.00
2022-08-04T05:00:09.738Z,57.40
2022-08-04T05:02:45.561Z,57.20
2022-08-04T05:05:21.456Z,56.80
2022-08-04T05:08:42.750Z,56.50
2022-08-04T05:11:19.459Z,56.30
2022-08-04T05:14:35.738Z,56.10
2022-08-04T05:17:00.148Z,55.90
2022-08-04T05:19:32.583Z,55.70
2022-08-04T05:22:05.536Z,56.00
2022-08-04T05:24:42.938Z,56.50
2022-08-04T05:27:22.540Z,56.80
2022-08-04T05:30:00.551Z,56.80
2022-08-04T05:32:32.784Z,56.30
2022-08-04T05:35:05.249Z,55.90
2022-08-04T05:37:35.061Z,55.40
2022-08-04T05:40:06.006Z,55.10
2022-08-04T05:42:35.914Z,55.00
2022-08-04T05:45:04.066Z,54.40
2022-08-04T05:47:33.609Z,53.90
2022-08-04T05:50:04.827Z,55.20
2022-08-04T05:52:34.548Z,54.30
2022-08-04T05:55:02.558Z,54.20
2022-08-04T05:57:30.443Z,53.80
2022-08-04T06:00:00.172Z,53.70
2022-08-04T06:02:30.449Z,53.90
2022-08-04T06:04:59.315Z,53.70
2022-08-04T06:07:26.721Z,53.90
2022-08-04T06:09:54.050Z,53.10
2022-08-04T06:12:27.890Z,53.20
2022-08-04T06:14:57.782Z,53.30
2022-08-04T06:18:58.543Z,53.30
2022-08-04T06:20:23.052Z,53.30
2022-08-04T06:22:55.290Z,52.80
2022-08-04T06:25:25.714Z,52.60
2022-08-04T06:27:53.351Z,52.40
2022-08-04T06:30:26.181Z,52.60
2022-08-04T06:33:03.847Z,52.50
2022-08-04T06:35:33.183Z,52.40
2022-08-04T06:38:01.834Z,52.60
2022-08-04T06:40:33.391Z,52.40
2022-08-04T06:43:10.316Z,52.00
2022-08-04T06:45:39.903Z,52.50
2022-08-04T06:48:08.296Z,52.40
2022-08-04T06:51:27.050Z,52.50
2022-08-04T06:53:24.067Z,52.50
2022-08-04T06:55:51.913Z,52.50
2022-08-04T06:58:21.979Z,52.30
2022-08-04T07:00:49.658Z,52.00
2022-08-04T07:03:18.369Z,52.20
2022-08-04T07:05:48.073Z,52.50
2022-08-04T07:08:15.442Z,52.40
2022-08-04T07:10:42.571Z,52.10
2022-08-04T07:13:10.864Z,50.90
2022-08-04T07:15:41.414Z,50.60
2022-08-04T07:18:08.350Z,50.40
2022-08-04T07:20:36.910Z,50.20
2022-08-04T07:23:07.606Z,50.00
2022-08-04T07:25:59.954Z,50.60
2022-08-04T07:28:25.274Z,50.00
2022-08-04T07:30:53.952Z,49.40
2022-08-04T07:33:21.939Z,49.20
2022-08-04T07:36:05.356Z,48.50
2022-08-04T07:38:51.035Z,48.70
2022-08-04T07:41:40.466Z,48.80
2022-08-04T07:44:09.026Z,48.40
2022-08-04T07:46:39.119Z,47.20
2022-08-04T07:49:07.015Z,46.20
2022-08-04T07:51:35.862Z,45.60
2022-08-04T07:54:05.126Z,45.60
2022-08-04T07:56:33.899Z,45.70
2022-08-04T07:59:01.497Z,44.30
2022-08-04T08:01:29.185Z,43.50
2022-08-04T08:03:58.839Z,43.50
2022-08-04T08:06:33.191Z,43.10
2022-08-04T08:09:13.713Z,42.40
2022-08-04T08:12:35.299Z,42.40
2022-08-04T08:14:35.589Z,43.60
2022-08-04T08:17:03.513Z,43.70
2022-08-04T08:19:34.809Z,43.50
2022-08-04T08:22:02.518Z,42.90
2022-08-04T08:24:36.160Z,42.30
2022-08-04T08:27:04.884Z,42.60
2022-08-04T08:29:34.370Z,41.00
2022-08-04T08:32:07.833Z,41.80
2022-08-04T08:34:36.222Z,41.80
2022-08-04T08:37:42.055Z,41.60
2022-08-04T08:40:40.318Z,41.30
2022-08-04T08:44:05.944Z,40.20
2022-08-04T08:46:47.951Z,40.60
2022-08-04T08:50:01.836Z,41.30
2022-08-04T08:52:56.413Z,40.90
2022-08-04T08:56:15.005Z,40.00
2022-08-04T08:59:00.192Z,40.60
2022-08-04T09:01:33.311Z,39.30
2022-08-04T09:04:25.129Z,38.90
2022-08-04T09:07:24.503Z,38.40
2022-08-04T09:09:56.881Z,38.30
2022-08-04T09:12:48.391Z,38.70
2022-08-04T09:15:17.077Z,38.60
2022-08-04T09:18:02.691Z,38.20
2022-08-04T09:20:31.793Z,37.10
2022-08-04T09:23:07.520Z,37.30
2022-08-04T09:26:05.335Z,37.60
2022-08-04T09:28:53.908Z,36.70
2022-08-04T09:31:28.495Z,36.00
2022-08-04T09:34:39.480Z,35.20
2022-08-04T09:37:26.306Z,35.70
2022-08-04T09:40:31.625Z,35.80
2022-08-04T09:43:58.949Z,35.50
2022-08-04T09:46:51.663Z,36.00
2022-08-04T09:49:27.785Z,35.40
2022-08-04T09:52:28.337Z,34.90
2022-08-04T09:55:34.680Z,33.70
2022-08-04T09:58:11.661Z,33.10
2022-08-04T10:00:48.333Z,34.00
2022-08-04T10:03:20.224Z,32.80
2022-08-04T10:06:19.369Z,33.60
2022-08-04T10:09:01.184Z,33.00
2022-08-04T10:11:55.631Z,33.50
2022-08-04T10:15:19.866Z,32.80
2022-08-04T10:18:20.596Z,32.70
2022-08-04T10:21:08.953Z,32.10
2022-08-04T10:23:55.171Z,32.80
2022-08-04T10:26:46.825Z,32.40
2022-08-04T10:29:30.710Z,32.80
2022-08-04T10:32:03.380Z,32.20
2022-08-04T10:34:54.400Z,31.80
2022-08-04T10:37:59.118Z,32.30
2022-08-04T10:40:37.566Z,32.80
2022-08-04T10:43:31.625Z,32.10
2022-08-04T10:46:05.599Z,32.10
2022-08-04T10:48:51.575Z,32.50
2022-08-04T10:51:27.924Z,31.70
2022-08-04T10:54:01.956Z,31.90
2022-08-04T10:56:42.810Z,31.70
2022-08-04T10:59:16.611Z,31.60
2022-08-04T11:02:02.893Z,31.70
2022-08-04T11:04:47.416Z,31.20
2022-08-04T11:07:16.736Z,31.10
2022-08-04T11:09:46.695Z,31.60
2022-08-04T11:12:19.617Z,31.60
2022-08-04T11:15:01.806Z,31.80
2022-08-04T11:17:50.396Z,31.40
2022-08-04T11:20:38.040Z,30.40
2022-08-04T11:23:14.043Z,31.00
2022-08-04T11:26:06.777Z,31.20
2022-08-04T11:29:06.928Z,31.20
2022-08-04T11:31:39.408Z,31.40
2022-08-04T11:34:26.679Z,32.20
2022-08-04T11:37:00.611Z,31.00
2022-08-04T11:39:35.673Z,30.80
2022-08-04T11:42:28.121Z,31.50
2022-08-04T11:45:32.423Z,31.40
2022-08-04T11:48:04.750Z,30.90
2022-08-04T11:50:41.589Z,30.90
2022-08-04T11:53:15.640Z,32.40
2022-08-04T11:56:07.005Z,30.80
2022-08-04T11:58:31.449Z,31.40
2022-08-04T12:01:22.691Z,30.50
2022-08-04T12:04:20.285Z,31.30
2022-08-04T12:07:30.049Z,30.90
2022-08-04T12:10:15.294Z,31.30
2022-08-04T12:13:08.119Z,30.20
2022-08-04T12:16:14.375Z,30.10
2022-08-04T12:19:01.664Z,30.20
2022-08-04T12:21:46.596Z,31.00
2022-08-04T12:24:23.792Z,30.10
2022-08-04T12:26:58.400Z,30.80
2022-08-04T12:29:28.264Z,30.00
2022-08-04T12:32:00.737Z,30.20
2022-08-04T12:34:46.404Z,30.00
2022-08-04T12:37:31.983Z,30.70
2022-08-04T12:40:27.528Z,29.40
2022-08-04T12:43:22.727Z,29.70
2022-08-04T12:45:52.976Z,30.80
2022-08-04T12:48:22.748Z,30.20
2022-08-04T12:50:53.881Z,30.00
2022-08-04T12:53:33.250Z,29.80
2022-08-04T12:56:02.348Z,29.80
2022-08-04T12:58:43.222Z,29.20
2022-08-04T13:02:10.647Z,29.60
2022-08-04T13:04:24.617Z,29.90
2022-08-04T13:07:10.933Z,29.80
2022-08-04T13:09:38.490Z,29.90
2022-08-04T13:12:13.070Z,29.60
2022-08-04T13:14:44.542Z,29.70
2022-08-04T13:17:12.131Z,29.30
2022-08-04T13:19:41.581Z,28.50
2022-08-04T13:22:09.281Z,29.40
2022-08-04T13:24:56.888Z,28.90
2022-08-04T13:27:27.080Z,29.50
2022-08-04T13:30:03.663Z,29.50
2022-08-04T13:32:32.561Z,28.90
2022-08-04T13:35:01.893Z,28.70
2022-08-04T13:37:39.601Z,28.70
2022-08-04T13:40:12.019Z,28.90
2022-08-04T13:42:39.821Z,28.80
2022-08-04T13:45:08.751Z,28.10
2022-08-04T13:47:39.228Z,27.80
2022-08-04T13:50:15.834Z,28.80
2022-08-04T13:52:43.949Z,29.40
2022-08-04T13:55:32.462Z,29.40
2022-08-04T13:58:02.275Z,27.70
2022-08-04T14:00:47.928Z,28.10
2022-08-04T14:03:24.876Z,27.80
2022-08-04T14:06:16.533Z,28.10
2022-08-04T14:08:51.837Z,28.60
2022-08-04T14:12:09.575Z,28.70
2022-08-04T14:14:27.174Z,29.30
2022-08-04T14:17:19.757Z,28.50
2022-08-04T14:19:50.470Z,28.20
2022-08-04T14:22:26.534Z,28.60
2022-08-04T14:25:04.251Z,28.80
2022-08-04T14:27:45.419Z,28.60
2022-08-04T14:30:36.544Z,28.30
2022-08-04T14:34:01.241Z,28.10
2022-08-04T14:35:59.638Z,27.80
2022-08-04T14:39:00.349Z,27.30
2022-08-04T14:41:43.634Z,27.60
2022-08-04T14:44:10.550Z,27.50
2022-08-04T14:46:51.821Z,27.40
2022-08-04T14:49:19.439Z,26.90
2022-08-04T14:51:59.519Z,26.90
2022-08-04T14:54:34.171Z,26.90
2022-08-04T14:57:06.199Z,27.40
2022-08-04T15:00:00.763Z,27.30
2022-08-04T15:02:30.422Z,27.20
2022-08-04T15:04:59.227Z,27.10
2022-08-04T15:07:46.206Z,27.20
2022-08-04T15:10:13.624Z,27.70
2022-08-04T15:12:40.929Z,28.00
2022-08-04T15:15:34.180Z,28.60
2022-08-04T15:17:55.959Z,28.60
2022-08-04T15:20:23.070Z,28.50
2022-08-04T15:22:50.239Z,27.70
2022-08-04T15:25:17.674Z,28.20
2022-08-04T15:27:48.877Z,28.80
2022-08-04T15:30:18.439Z,29.00
2022-08-04T15:32:52.843Z,28.80
2022-08-04T15:35:28.889Z,28.50
2022-08-04T15:38:09.352Z,28.00
2022-08-04T15:40:37.051Z,28.10
2022-08-04T15:43:29.592Z,28.10
2022-08-04T15:46:34.991Z,28.20
2022-08-04T15:48:47.109Z,28.60
2022-08-04T15:51:24.316Z,28.40
2022-08-04T15:54:03.564Z,27.90
2022-08-04T15:56:31.298Z,28.00
2022-08-04T15:58:58.564Z,28.20
2022-08-04T16:01:27.654Z,28.40
2022-08-04T16:04:00.230Z,28.90
2022-08-04T16:06:29.181Z,29.00
2022-08-04T16:09:02.322Z,29.10
2022-08-04T16:11:31.370Z,29.60
2022-08-04T16:13:59.042Z,29.60
2022-08-04T16:17:05.167Z,29.90
2022-08-04T16:19:36.358Z,30.10
2022-08-04T16:22:04.821Z,30.40
2022-08-04T16:24:40.255Z,30.40
2022-08-04T16:27:09.269Z,31.00
2022-08-04T16:29:40.355Z,32.60
2022-08-04T16:32:13.402Z,31.90
2022-08-04T16:35:00.978Z,32.20
2022-08-04T16:37:37.802Z,31.80
2022-08-04T16:40:34.015Z,31.90
2022-08-04T16:43:13.619Z,31.70
2022-08-04T16:45:51.658Z,30.90
2022-08-04T16:48:27.308Z,30.70
2022-08-04T16:51:04.610Z,30.80
2022-08-04T16:54:04.349Z,30.60
2022-08-04T16:56:33.578Z,30.90
2022-08-04T16:59:12.100Z,31.20
2022-08-04T17:01:47.622Z,30.40
2022-08-04T17:04:14.586Z,31.00
2022-08-04T17:06:43.876Z,31.70
2022-08-04T17:09:14.777Z,32.00
2022-08-04T17:11:44.197Z,32.40
2022-08-04T17:14:11.768Z,32.50
2022-08-04T17:16:42.102Z,32.60
2022-08-04T17:19:19.799Z,32.90
2022-08-04T17:21:52.362Z,33.40
2022-08-04T17:24:21.105Z,33.70
2022-08-04T17:26:54.615Z,34.20
2022-08-04T17:29:43.534Z,34.70
2022-08-04T17:32:16.280Z,34.90
2022-08-04T17:34:57.496Z,35.60
2022-08-04T17:37:53.014Z,37.00
2022-08-04T17:40:22.745Z,37.90
2022-08-04T17:46:28.783Z,39.10
2022-08-04T17:49:08.955Z,39.30
2022-08-04T17:52:02.615Z,40.40
2022-08-04T17:54:29.654Z,40.70
2022-08-04T17:57:19.973Z,40.50
2022-08-04T18:02:37.893Z,40.70
2022-08-04T18:05:12.374Z,41.30
2022-08-04T18:08:35.661Z,41.50
2022-08-04T18:10:52.509Z,41.50
2022-08-04T18:13:24.466Z,42.00
2022-08-04T18:16:14.386Z,42.30
2022-08-04T18:19:31.444Z,42.70
2022-08-04T18:22:00.492Z,43.00
2022-08-04T18:24:55.506Z,43.10
2022-08-04T18:27:27.964Z,43.00
2022-08-04T18:30:33.290Z,42.90
2022-08-04T18:33:10.462Z,43.10
2022-08-04T18:36:33.427Z,43.40
2022-08-04T18:41:09.103Z,43.90
2022-08-04T18:43:41.013Z,44.00
2022-08-04T18:46:14.364Z,44.00
2022-08-04T18:48:41.888Z,44.10
2022-08-04T18:51:23.779Z,44.20
2022-08-04T18:53:58.170Z,44.40
2022-08-04T18:56:30.007Z,44.40
2022-08-04T18:59:14.359Z,44.20
2022-08-04T19:02:12.383Z,44.30
2022-08-04T19:04:36.970Z,44.20
2022-08-04T19:07:24.692Z,46.00
2022-08-04T19:09:57.252Z,47.30
2022-08-04T19:12:26.769Z,47.90
2022-08-04T19:14:58.853Z,48.00
2022-08-04T19:17:53.856Z,48.00
2022-08-04T19:20:25.414Z,48.00
2022-08-04T19:24:30.141Z,49.00
2022-08-04T19:26:03.011Z,49.80
2022-08-04T19:28:34.173Z,50.10
2022-08-04T19:31:06.527Z,50.10
2022-08-04T19:33:59.073Z,49.70
2022-08-04T19:36:21.206Z,49.20
2022-08-04T19:39:00.137Z,49.00
2022-08-04T19:41:30.582Z,50.30
2022-08-04T19:43:58.503Z,52.00
2022-08-04T19:46:28.531Z,52.60
2022-08-04T19:48:58.866Z,52.90
2022-08-04T19:51:28.929Z,53.30
2022-08-04T19:54:04.099Z,53.30
2022-08-04T19:56:41.486Z,53.20
2022-08-04T19:59:10.179Z,53.20
2022-08-04T20:01:44.864Z,53.50
2022-08-04T20:04:13.097Z,53.30
2022-08-04T20:06:40.029Z,53.50
2022-08-04T20:09:24.667Z,53.20
2022-08-04T20:11:54.343Z,52.80
2022-08-04T20:14:31.475Z,52.10
2022-08-04T20:17:00.921Z,51.80
2022-08-04T20:19:27.980Z,51.90
2022-08-04T20:21:57.697Z,51.90
2022-08-04T20:24:39.943Z,52.50
2022-08-04T20:27:15.037Z,53.20
2022-08-04T20:29:50.372Z,53.70
2022-08-04T20:32:22.705Z,54.20
2022-08-04T20:34:51.980Z,54.10
2022-08-04T20:37:24.082Z,53.30
2022-08-04T20:40:00.924Z,53.20
2022-08-04T20:42:34.092Z,54.30
2022-08-04T20:45:01.973Z,54.70
2022-08-04T20:47:35.007Z,55.00
2022-08-04T20:50:08.992Z,54.40
2022-08-04T20:52:37.793Z,53.70
2022-08-04T20:55:06.313Z,53.80
2022-08-04T20:57:47.727Z,53.70
2022-08-04T21:00:26.594Z,53.70
2022-08-04T21:02:58.697Z,53.60
2022-08-04T21:05:26.583Z,53.70
2022-08-04T21:07:57.006Z,53.70
2022-08-04T21:10:27.663Z,53.30
2022-08-04T21:12:55.487Z,52.40
2022-08-04T21:15:25.512Z,51.80
2022-08-04T21:17:58.277Z,51.60
2022-08-04T21:20:32.429Z,51.40
2022-08-04T21:23:02.032Z,51.40
2022-08-04T21:25:30.450Z,51.20
2022-08-04T21:27:58.533Z,50.80
2022-08-04T21:30:27.876Z,50.30
2022-08-04T21:32:55.628Z,50.00
2022-08-04T21:35:37.183Z,50.00
2022-08-04T21:38:16.212Z,49.90
2022-08-04T21:40:58.441Z,49.60
2022-08-04T21:43:34.452Z,49.60
2022-08-04T21:46:11.486Z,49.50
2022-08-04T21:48:39.035Z,49.10
2022-08-04T21:51:57.825Z,48.60
2022-08-04T21:54:17.079Z,48.50
2022-08-04T21:56:49.251Z,48.30
2022-08-04T21:59:23.549Z,48.10
2022-08-04T22:02:01.077Z,47.90
2022-08-04T22:04:29.406Z,47.60
2022-08-04T22:06:56.354Z,47.40
2022-08-04T22:09:23.185Z,47.20
2022-08-04T22:11:51.596Z,47.10
2022-08-04T22:14:27.655Z,47.10
2022-08-04T22:17:01.462Z,47.00
2022-08-04T22:19:50.041Z,46.40
2022-08-04T22:22:24.458Z,46.50
2022-08-04T22:24:54.828Z,46.10
2022-08-04T22:27:40.380Z,46.30
2022-08-04T22:30:16.920Z,46.20
2022-08-04T22:32:47.220Z,46.10
2022-08-04T22:35:30.864Z,45.70
2022-08-04T22:38:07.709Z,45.40
2022-08-04T22:40:38.421Z,45.20
2022-08-04T22:43:22.606Z,45.30
2022-08-04T22:45:52.367Z,45.20
2022-08-04T22:48:19.424Z,45.10
2022-08-04T22:50:46.226Z,45.20
2022-08-04T22:53:17.960Z,45.30
2022-08-04T22:56:07.075Z,45.60
2022-08-04T22:58:32.246Z,45.80
2022-08-04T23:00:59.356Z,46.40
2022-08-04T23:03:37.710Z,46.70
2022-08-04T23:06:10.594Z,46.90
2022-08-04T23:08:38.216Z,47.30
2022-08-04T23:11:08.770Z,47.60
2022-08-04T23:13:36.603Z,48.10
2022-08-04T23:16:09.830Z,48.40
2022-08-04T23:18:40.251Z,48.70
2022-08-04T23:21:10.406Z,48.90
2022-08-04T23:23:55.363Z,49.30
2022-08-04T23:26:28.020Z,49.30
2022-08-04T23:28:56.426Z,49.50
2022-08-04T23:31:24.682Z,49.50
2022-08-04T23:33:52.414Z,49.60
2022-08-04T23:36:30.062Z,49.70
2022-08-04T23:39:04.246Z,49.60
2022-08-04T23:41:54.338Z,49.50
2022-08-04T23:44:24.830Z,49.60
2022-08-04T23:47:03.690Z,49.70
2022-08-04T23:49:40.714Z,49.70
2022-08-04T23:52:23.372Z,49.50
2022-08-04T23:54:55.536Z,49.60
2022-08-04T23:57:22.583Z,49.90
2022-08-04T23:59:54.908Z,49.70
